aviador You're here:

PAKF Decoded Metar

FALSE PASS in AK, US
Report Time2018-07-23 15:21:00
UTC Time2018-07-23 15:49:28
Flight Rules mvfr MVFR
Wind150° at 04 kt
W.Decomp.*RWY 14: 4.0 kt HW 0.4 kt LCW
W.Rank150° ranks 8
Current wind is below 150° avg. (11.1)
Visibility6437 m
Phenomena:Light Rain
Mist
Clouds:Few 003 Hf
Overcast 032 Hf
Ceiling3,200 ft
Temp09°C (ISA -6)
Dew Point09°C (100% RH)
AAT7.3°C
QNH1012 hPa
Density Alt-509 ft
Elevation19 ft
Report Wrong Elevation
Raw Report
PAKF 231521Z AUTO 15004KT 4SM -RA BR FEW003 OVC032 09/09 A2987 RMK
AO2 P0001=

Extra information for PAKF:More info

Metar Taf Metar & Taf Last 4 Metars F.Rules Stats Wind Profile Meteogram Temp Stats Airport Information Weather charts Add Link Nearby VenuesMetar ALERT Operation Metar Decoded Social comments